Time;durP1;ratioP1;P1;durP2;ratioP2;P2;SDS_P1;SDS_P2;PMS_P1;PMS_P2;Temp;Humidity;BMP_temperature;BMP_pressure;BME280_temperature;BME280_humidity;BME280_pressure;Samples;Min_cycle;Max_cycle;Signal;HPM_P1;HPM_P2
2023/02/09 05:59:35;;;;;;;13.30;5.80;;;10.90;53.20;;;;;;4754613;29;20134;-76
2023/02/09 06:02:04;;;;;;;16.23;5.68;;;11.20;53.30;;;;;;4754460;30;20067;-75
2023/02/09 06:04:31;;;;;;;16.00;5.97;;;11.30;53.50;;;;;;4754444;30;20400;-75
2023/02/09 06:06:57;;;;;;;21.42;6.72;;;11.50;53.50;;;;;;4753957;30;20056;-76
2023/02/09 06:09:23;;;;;;;12.23;5.28;;;11.60;53.30;;;;;;4753579;30;20380;-76
2023/02/09 06:11:49;;;;;;;12.25;4.90;;;11.70;53.10;;;;;;4754865;30;20072;-77
2023/02/09 06:14:15;;;;;;;15.43;5.47;;;11.90;53.00;;;;;;4754167;30;20464;-76
2023/02/09 06:16:41;;;;;;;12.73;5.32;;;12.00;53.10;;;;;;4753261;30;20044;-77
2023/02/09 06:19:15;;;;;;;11.85;4.90;;;12.10;53.00;;;;;;4753829;30;20064;-78
2023/02/09 06:21:41;;;;;;;9.38;4.68;;;12.00;53.20;;;;;;4752796;30;20425;-78
2023/02/09 06:24:07;;;;;;;13.15;5.40;;;12.10;53.20;;;;;;4754044;30;20055;-79
2023/02/09 06:26:33;;;;;;;9.18;4.53;;;12.20;53.20;;;;;;4754232;30;20036;-78
2023/02/09 06:29:02;;;;;;;9.65;4.65;;;12.30;53.10;;;;;;4754264;30;20056;-78
2023/02/09 06:31:28;;;;;;;12.13;4.78;;;12.40;53.90;;;;;;4754388;30;20048;-74
2023/02/09 06:33:54;;;;;;;10.70;4.68;;;12.50;53.50;;;;;;4754024;30;20058;-80
2023/02/09 06:36:25;;;;;;;13.50;4.32;;;12.50;53.60;;;;;;4753668;30;20066;-77
2023/02/09 06:38:57;;;;;;;14.63;5.18;;;12.70;53.90;;;;;;4738246;30;20073;-78
2023/02/09 06:45:28;;;;;;;11.80;4.68;;;12.80;54.40;;;;;;4754327;30;20047;-80
2023/02/09 06:47:59;;;;;;;13.75;5.07;;;12.90;53.90;;;;;;4753111;30;20056;-79
2023/02/09 06:50:38;;;;;;;14.68;4.78;;;13.00;53.90;;;;;;4753205;30;20059;-78
2023/02/09 06:53:06;;;;;;;11.65;4.13;;;13.00;53.60;;;;;;4754248;30;20360;-78
2023/02/09 06:55:37;;;;;;;13.68;4.35;;;13.10;53.40;;;;;;4767291;30;20082;-78
2023/02/09 06:58:12;;;;;;;12.63;4.45;;;13.20;53.20;;;;;;4767624;30;20055;-78
2023/02/09 07:01:48;;;;;;;18.27;5.10;;;13.30;53.40;;;;;;4755482;30;20486;-79
2023/02/09 07:08:04;;;;;;;29.88;6.18;;;13.40;54.70;;;;;;4767109;30;20073;-76
2023/02/09 07:14:14;;;;;;;24.00;5.70;;;13.60;54.90;;;;;;4771393;30;20055;-79
2023/02/09 07:16:40;;;;;;;30.83;6.25;;;13.60;54.80;;;;;;4774534;30;20048;-80
2023/02/09 07:19:06;;;;;;;25.23;5.40;;;13.70;54.70;;;;;;4759986;30;20051;-79
2023/02/09 07:22:52;;;;;;;28.70;5.82;;;13.80;54.70;;;;;;4755848;30;20135;-79
2023/02/09 07:40:20;;;;;;;27.20;5.43;;;14.00;54.80;;;;;;4702180;30;20118;-80
2023/02/09 07:42:46;;;;;;;22.42;5.65;;;14.10;54.70;;;;;;4706051;30;20055;-75
2023/02/09 07:47:11;;;;;;;24.77;4.63;;;14.30;53.90;;;;;;5133558;27;20878;-80
2023/02/09 07:49:37;;;;;;;17.40;4.45;;;14.30;54.20;;;;;;5107388;28;20044;-80
2023/02/09 07:52:03;;;;;;;15.27;4.47;;;14.40;54.40;;;;;;5093643;28;20097;-79
2023/02/09 07:54:28;;;;;;;19.83;5.53;;;14.40;54.40;;;;;;5112985;28;20079;-80
2023/02/09 07:56:55;;;;;;;18.92;4.88;;;14.40;54.40;;;;;;5113036;28;20051;-78
2023/02/09 07:59:21;;;;;;;17.52;4.78;;;14.40;54.20;;;;;;5112926;28;20048;-80
2023/02/09 08:01:46;;;;;;;16.67;5.05;;;14.50;54.00;;;;;;5112079;28;20052;-82
2023/02/09 08:04:12;;;;;;;24.38;4.15;;;14.50;53.80;;;;;;5112987;28;20079;-80
2023/02/09 08:06:45;;;;;;;11.48;3.78;;;14.60;53.50;;;;;;5111701;28;20478;-81
2023/02/09 08:09:13;;;;;;;15.55;5.07;;;14.60;53.40;;;;;;5112538;28;20047;-79
2023/02/09 08:11:44;;;;;;;10.10;3.50;;;14.60;53.30;;;;;;5107875;28;20081;-81
2023/02/09 08:14:17;;;;;;;16.65;4.53;;;14.60;53.30;;;;;;5096063;28;20040;-80
2023/02/09 08:16:44;;;;;;;12.10;3.60;;;14.60;53.30;;;;;;5090942;28;20054;-80
2023/02/09 08:19:15;;;;;;;8.60;3.90;;;14.70;53.30;;;;;;5091534;28;20324;-80
2023/02/09 08:21:45;;;;;;;10.23;3.63;;;14.70;53.40;;;;;;5091068;28;20425;-79
2023/02/09 08:24:21;;;;;;;16.20;3.58;;;14.80;53.50;;;;;;5090477;28;20050;-80
2023/02/09 08:45:23;;;;;;;10.32;3.28;;;14.90;54.30;;;;;;5058444;28;20086;-79
2023/02/09 08:51:45;;;;;;;8.43;3.20;;;15.00;54.50;;;;;;5018035;28;20044;-79
2023/02/09 08:54:54;;;;;;;;;;;;;;;;;;;;;
2023/02/09 08:57:20;;;;;;;10.25;2.58;;;15.10;54.50;;;;;;5041257;28;20042;-76
2023/02/09 08:59:48;;;;;;;9.15;2.42;;;15.20;54.20;;;;;;5017373;28;20443;-77
2023/02/09 09:02:14;;;;;;;8.57;2.63;;;15.30;53.90;;;;;;5082372;28;20040;-75
2023/02/09 09:04:40;;;;;;;7.60;2.45;;;15.30;53.70;;;;;;5077356;28;20044;-78
2023/02/09 09:07:05;;;;;;;7.32;2.95;;;15.30;53.50;;;;;;5084498;28;20524;-77
2023/02/09 09:09:31;;;;;;;4.32;2.40;;;15.40;53.50;;;;;;5084013;28;20028;-77
2023/02/09 09:11:57;;;;;;;15.15;3.33;;;15.30;53.30;;;;;;5077162;28;20036;-77
2023/02/09 09:14:25;;;;;;;7.57;2.63;;;15.40;53.30;;;;;;5077113;28;20044;-79
2023/02/09 09:16:51;;;;;;;5.25;2.60;;;15.40;53.70;;;;;;5086967;28;20055;-77
2023/02/09 09:19:17;;;;;;;5.28;2.30;;;15.40;52.80;;;;;;5068645;28;20075;-76
2023/02/09 09:21:44;;;;;;;11.40;2.53;;;15.50;52.60;;;;;;5086637;28;20079;-78
2023/02/09 09:24:09;;;;;;;6.22;2.10;;;15.50;52.40;;;;;;5094425;28;20475;-75
2023/02/09 09:26:35;;;;;;;6.57;2.60;;;15.20;54.90;;;;;;5096412;28;20044;-77
2023/02/09 09:29:01;;;;;;;10.85;2.40;;;15.00;55.10;;;;;;5092375;28;20041;-77
2023/02/09 09:31:26;;;;;;;11.02;2.70;;;14.90;55.30;;;;;;5076948;28;20117;-77
2023/02/09 09:33:53;;;;;;;5.97;2.20;;;14.70;55.70;;;;;;5069497;28;20051;-76
2023/02/09 09:36:19;;;;;;;4.40;2.35;;;14.60;55.90;;;;;;5085542;28;20032;-76
2023/02/09 09:38:45;;;;;;;7.03;2.47;;;14.60;56.10;;;;;;5078551;28;20059;-77
2023/02/09 09:41:19;;;;;;;14.60;2.53;;;14.50;56.30;;;;;;5077458;28;20059;-76
2023/02/09 09:43:44;;;;;;;;;;;14.50;56.60;;;;;;5078074;28;20498;-77
2023/02/09 09:46:16;;;;;;;4.57;2.22;;;14.40;56.90;;;;;;5076443;28;19999;-77
2023/02/09 09:48:49;;;;;;;9.55;3.00;;;14.60;56.40;;;;;;5083255;28;20367;-76
2023/02/09 09:51:36;;;;;;;7.47;2.33;;;14.80;55.90;;;;;;5089033;28;20122;-77
2023/02/09 09:54:05;;;;;;;12.48;2.47;;;14.90;55.40;;;;;;5097100;28;20541;-76
2023/02/09 09:56:32;;;;;;;7.72;2.28;;;15.10;55.00;;;;;;5094505;28;20048;-77
2023/02/09 09:58:59;;;;;;;7.18;2.22;;;15.20;54.60;;;;;;5085198;28;20040;-76
2023/02/09 10:01:29;;;;;;;8.43;2.40;;;15.30;54.40;;;;;;5076745;28;20052;-77
2023/02/09 10:04:08;;;;;;;3.83;2.20;;;15.40;54.20;;;;;;5085847;28;20124;-78
2023/02/09 10:06:33;;;;;;;5.22;2.25;;;15.40;54.00;;;;;;5085600;28;20462;-77
2023/02/09 10:09:06;;;;;;;6.38;2.70;;;15.50;53.80;;;;;;5083616;28;20197;-76
2023/02/09 10:11:52;;;;;;;7.33;2.20;;;15.60;53.60;;;;;;5085575;28;20077;-77
2023/02/09 10:14:18;;;;;;;7.47;2.20;;;15.60;53.60;;;;;;5085912;28;20454;-77
2023/02/09 10:16:44;;;;;;;8.38;2.00;;;15.70;53.50;;;;;;5084965;28;20040;-78
2023/02/09 10:19:20;;;;;;;5.30;2.22;;;15.70;53.50;;;;;;5083886;28;20489;-78
2023/02/09 10:21:47;;;;;;;7.07;2.40;;;15.80;53.20;;;;;;5084867;28;20036;-77
2023/02/09 10:24:26;;;;;;;4.35;2.05;;;15.80;53.20;;;;;;5085205;28;20042;-77
2023/02/09 10:27:25;;;;;;;5.72;2.60;;;15.80;53.00;;;;;;5083298;28;20045;-77
2023/02/09 10:29:50;;;;;;;5.50;1.80;;;15.80;53.10;;;;;;5085084;28;20051;-77
2023/02/09 10:32:20;;;;;;;7.38;2.15;;;15.90;53.10;;;;;;5088858;28;20032;-77
2023/02/09 10:34:50;;;;;;;9.60;2.30;;;15.90;53.00;;;;;;5096668;28;20389;-77
2023/02/09 10:37:36;;;;;;;4.40;1.95;;;15.90;53.20;;;;;;5091610;28;20040;-76
2023/02/09 10:40:11;;;;;;;6.63;2.28;;;15.90;53.00;;;;;;5075982;28;20098;-77
2023/02/09 10:42:40;;;;;;;10.63;2.67;;;15.80;53.10;;;;;;5074947;28;20109;-76
2023/02/09 10:45:37;;;;;;;16.27;2.58;;;15.90;53.10;;;;;;5074910;28;20083;-77
2023/02/09 10:48:12;;;;;;;6.38;2.00;;;16.00;52.90;;;;;;5071699;28;20049;-77
2023/02/09 10:50:55;;;;;;;5.32;2.00;;;16.00;52.70;;;;;;5076038;28;20036;-77
2023/02/09 10:53:21;;;;;;;9.00;2.40;;;16.10;52.70;;;;;;5076427;28;20049;-77
2023/02/09 10:55:47;;;;;;;5.28;2.17;;;16.10;52.70;;;;;;5075512;28;20045;-77
2023/02/09 10:58:26;;;;;;;3.55;1.95;;;16.10;52.70;;;;;;5080318;28;20039;-77
2023/02/09 11:01:26;;;;;;;8.10;1.98;;;16.10;52.70;;;;;;5095830;28;20043;-77
2023/02/09 11:03:58;;;;;;;3.78;1.83;;;16.10;52.70;;;;;;5077427;28;20056;-77
2023/02/09 11:06:24;;;;;;;4.15;2.55;;;16.10;52.70;;;;;;5095428;28;20048;-77
2023/02/09 11:09:11;;;;;;;5.57;2.28;;;16.10;52.70;;;;;;5095819;28;20059;-78
2023/02/09 11:11:39;;;;;;;3.97;1.70;;;16.10;52.60;;;;;;5095957;28;20036;-77
2023/02/09 11:14:16;;;;;;;4.35;2.13;;;16.10;52.70;;;;;;5077646;28;20120;-78
2023/02/09 11:16:45;;;;;;;3.38;1.88;;;16.20;52.60;;;;;;5094388;28;20454;-77
2023/02/09 11:19:21;;;;;;;7.22;1.90;;;16.20;52.50;;;;;;5094590;28;20048;-78
2023/02/09 11:22:12;;;;;;;3.80;1.98;;;16.20;52.50;;;;;;5077530;28;20039;-78
2023/02/09 11:25:05;;;;;;;6.28;2.40;;;16.20;52.30;;;;;;5090557;28;20040;-78
2023/02/09 11:28:15;;;;;;;4.88;2.13;;;16.30;52.50;;;;;;5078017;28;20063;-78
2023/02/09 11:31:00;;;;;;;5.93;2.22;;;16.30;52.50;;;;;;5065672;28;20048;-78
2023/02/09 11:34:00;;;;;;;5.53;3.30;;;16.30;52.40;;;;;;5057149;28;20094;-77
2023/02/09 11:36:41;;;;;;;10.33;2.73;;;16.30;52.50;;;;;;5074317;28;20040;-80
2023/02/09 11:39:39;;;;;;;5.78;2.28;;;16.30;52.50;;;;;;5075270;28;20293;-78
2023/02/09 11:45:07;;;;;;;8.20;2.92;;;16.30;52.50;;;;;;5074863;28;20383;-79
2023/02/09 11:47:58;;;;;;;10.37;3.20;;;16.30;52.50;;;;;;5074482;28;20045;-79
2023/02/09 11:50:27;;;;;;;7.97;2.83;;;16.30;52.60;;;;;;5075041;28;20131;-79
2023/02/09 11:53:00;;;;;;;7.70;3.55;;;16.30;52.80;;;;;;5077154;28;20226;-78
2023/02/09 11:55:41;;;;;;;8.63;3.50;;;16.40;53.00;;;;;;5094377;28;20051;-77
2023/02/09 11:58:39;;;;;;;8.75;3.40;;;16.30;52.90;;;;;;5094190;28;20040;-79
2023/02/09 12:01:14;;;;;;;10.23;3.55;;;16.30;53.00;;;;;;5033555;28;20059;-78
2023/02/09 12:03:46;;;;;;;8.38;3.30;;;16.30;53.10;;;;;;5094071;28;20512;-78
2023/02/09 12:06:15;;;;;;;11.07;4.30;;;16.30;53.10;;;;;;5094023;28;20548;-77
2023/02/09 12:09:07;;;;;;;10.75;3.90;;;16.40;53.20;;;;;;5094742;28;20043;-78
2023/02/09 12:12:02;;;;;;;9.57;4.28;;;16.40;53.40;;;;;;5094974;28;20119;-78
2023/02/09 12:14:36;;;;;;;10.73;4.40;;;16.30;53.50;;;;;;5093704;28;20044;-77
2023/02/09 12:17:36;;;;;;;11.13;5.13;;;16.30;53.70;;;;;;5095176;28;20125;-78
2023/02/09 12:20:02;;;;;;;22.63;6.32;;;16.40;53.20;;;;;;5094787;28;20046;-78
2023/02/09 12:22:47;;;;;;;16.13;5.38;;;16.30;52.50;;;;;;5076071;28;20028;-76
2023/02/09 12:25:34;;;;;;;15.50;5.95;;;16.40;52.20;;;;;;5074458;28;20045;-77
2023/02/09 12:28:16;;;;;;;16.10;6.22;;;16.30;52.30;;;;;;5074398;28;20080;-77
2023/02/09 12:30:41;;;;;;;11.23;5.40;;;16.30;52.50;;;;;;5073463;28;20044;-77
2023/02/09 12:33:22;;;;;;;16.00;4.70;;;16.30;52.80;;;;;;5077074;28;20047;-77
2023/02/09 12:35:56;;;;;;;15.82;5.47;;;16.30;53.00;;;;;;5087688;28;20032;-78
2023/02/09 12:38:23;;;;;;;12.48;5.55;;;16.30;53.20;;;;;;5079529;28;20113;-76
2023/02/09 12:41:04;;;;;;;13.80;5.05;;;16.40;53.20;;;;;;5078416;28;20066;-77
2023/02/09 12:43:31;;;;;;;17.67;5.32;;;16.40;53.50;;;;;;5077508;28;20054;-77
2023/02/09 12:46:23;;;;;;;15.25;5.07;;;16.30;53.60;;;;;;5087411;28;20060;-76
2023/02/09 12:49:10;;;;;;;16.17;4.90;;;16.30;53.80;;;;;;5079858;28;20084;-78
2023/02/09 12:51:50;;;;;;;18.52;5.07;;;16.30;53.90;;;;;;5078215;28;20339;-77
2023/02/09 12:54:34;;;;;;;11.52;5.18;;;16.30;53.80;;;;;;5077596;28;20037;-76
2023/02/09 12:57:15;;;;;;;13.80;5.22;;;16.30;53.60;;;;;;5060003;28;20048;-77
2023/02/09 12:59:51;;;;;;;11.93;5.00;;;16.20;53.50;;;;;;5077862;28;20139;-78
2023/02/09 13:02:28;;;;;;;12.48;4.40;;;16.20;53.50;;;;;;5077795;28;20109;-76
2023/02/09 13:05:06;;;;;;;16.10;5.18;;;16.20;53.50;;;;;;5077636;28;20515;-76
2023/02/09 13:07:32;;;;;;;9.23;4.60;;;16.20;53.50;;;;;;5077086;28;20048;-76
2023/02/09 13:10:13;;;;;;;10.98;4.50;;;16.20;53.40;;;;;;5077783;28;20105;-75
2023/02/09 13:12:45;;;;;;;10.25;4.43;;;16.20;53.20;;;;;;5077954;28;20371;-76
2023/02/09 13:15:13;;;;;;;12.18;4.43;;;16.20;53.20;;;;;;5079783;28;20455;-76
2023/02/09 13:17:42;;;;;;;10.38;4.80;;;16.20;53.20;;;;;;5097424;28;20058;-76
2023/02/09 13:20:33;;;;;;;10.68;4.32;;;16.20;53.20;;;;;;5097827;28;20040;-77
2023/02/09 13:23:25;;;;;;;10.38;4.13;;;16.20;53.00;;;;;;5098023;28;20052;-75
2023/02/09 13:25:59;;;;;;;7.55;3.97;;;16.20;52.90;;;;;;5096625;28;20056;-76
2023/02/09 13:28:25;;;;;;;6.10;4.03;;;16.20;52.80;;;;;;5096835;28;20069;-75
2023/02/09 13:30:51;;;;;;;7.85;3.72;;;16.20;52.80;;;;;;5097559;28;20130;-76
2023/02/09 13:33:20;;;;;;;6.18;3.75;;;16.20;52.80;;;;;;5097908;28;20336;-76
2023/02/09 13:36:30;;;;;;;8.23;3.80;;;16.20;52.80;;;;;;5096729;28;20052;-76
2023/02/09 13:38:57;;;;;;;5.28;3.75;;;16.20;52.70;;;;;;5018678;28;20054;-76
2023/02/09 13:41:36;;;;;;;8.07;3.50;;;16.20;52.70;;;;;;5019029;28;20468;-74
2023/02/09 13:44:01;;;;;;;11.82;4.10;;;16.20;52.60;;;;;;5072538;28;20060;-77
2023/02/09 13:46:33;;;;;;;21.83;6.07;;;16.20;52.70;;;;;;5083603;28;20067;-75
2023/02/09 13:49:23;;;;;;;24.88;7.50;;;16.20;52.90;;;;;;5080961;28;20057;-75
2023/02/09 13:52:14;;;;;;;30.80;5.97;;;16.20;53.50;;;;;;5076870;28;20128;-77
2023/02/09 13:54:41;;;;;;;27.02;5.93;;;16.20;53.80;;;;;;5077000;28;20036;-77
2023/02/09 13:57:23;;;;;;;26.92;6.07;;;16.30;53.90;;;;;;5078480;28;20460;-76
2023/02/09 13:59:49;;;;;;;23.02;5.80;;;16.30;54.40;;;;;;5079622;28;20348;-74
2023/02/09 14:02:23;;;;;;;30.00;6.28;;;16.30;54.30;;;;;;5076763;28;20075;-79
2023/02/09 14:04:54;;;;;;;26.30;6.35;;;16.30;54.20;;;;;;5075718;28;20045;-74
2023/02/09 14:07:23;;;;;;;39.30;7.20;;;16.30;54.20;;;;;;5075109;28;20053;-81
2023/02/09 14:10:01;;;;;;;23.67;6.75;;;16.20;54.10;;;;;;5075606;28;20354;-74
2023/02/09 14:12:50;;;;;;;36.33;6.80;;;16.20;54.00;;;;;;5078475;28;20455;-78
2023/02/09 14:18:22;;;;;;;37.60;7.55;;;16.20;54.30;;;;;;5083488;28;20040;-76
2023/02/09 14:21:03;;;;;;;43.78;8.35;;;16.10;54.50;;;;;;5081889;28;20116;-77
2023/02/09 14:23:31;;;;;;;42.67;8.25;;;16.20;54.70;;;;;;5084713;28;20095;-76
2023/02/09 14:26:06;;;;;;;46.72;9.23;;;16.10;55.30;;;;;;5082321;28;20355;-78
2023/02/09 14:28:35;;;;;;;36.42;7.40;;;16.20;54.60;;;;;;5061971;28;20075;-78
2023/02/09 14:31:03;;;;;;;37.67;7.32;;;16.10;54.60;;;;;;5074998;28;20044;-78
2023/02/09 14:33:33;;;;;;;48.03;8.70;;;16.20;54.70;;;;;;5080346;28;20048;-76
2023/02/09 14:36:00;;;;;;;38.00;8.57;;;16.10;54.70;;;;;;5085065;28;20127;-76
2023/02/09 14:38:46;;;;;;;36.65;8.63;;;16.10;54.80;;;;;;5086752;28;20072;-77
2023/02/09 14:41:21;;;;;;;33.28;8.10;;;16.10;54.90;;;;;;5084306;28;20128;-79
2023/02/09 14:44:07;;;;;;;35.60;7.60;;;16.20;55.00;;;;;;5082738;28;20080;-79
2023/02/09 14:46:56;;;;;;;28.95;7.25;;;16.10;54.90;;;;;;5073634;28;20058;-78
2023/02/09 14:49:22;;;;;;;31.35;7.47;;;16.20;55.20;;;;;;5068270;28;20032;-79
2023/02/09 14:51:52;;;;;;;29.75;7.35;;;16.10;55.10;;;;;;5084884;28;20028;-78
2023/02/09 14:54:25;;;;;;;33.97;6.88;;;16.10;55.20;;;;;;5066802;28;20110;-77
2023/02/09 14:56:56;;;;;;;31.48;7.00;;;16.10;55.10;;;;;;5081277;28;20054;-78
2023/02/09 14:59:22;;;;;;;31.60;7.68;;;16.20;55.80;;;;;;5084881;28;20036;-79
2023/02/09 15:01:52;;;;;;;31.45;8.25;;;16.20;55.10;;;;;;5084721;28;20040;-78
2023/02/09 15:04:19;;;;;;;22.50;7.38;;;16.20;54.80;;;;;;5085092;28;20119;-79
2023/02/09 15:06:55;;;;;;;32.90;7.50;;;16.10;54.70;;;;;;5083265;28;20040;-76
2023/02/09 15:09:34;;;;;;;;;;;;;;;;;;;;;
2023/02/09 15:12:05;;;;;;;33.45;7.38;;;16.10;54.60;;;;;;5085272;28;19921;-77
2023/02/09 15:14:34;;;;;;;35.13;8.68;;;16.10;54.60;;;;;;5066199;28;20443;-77
2023/02/09 15:17:01;;;;;;;28.13;7.43;;;16.10;54.50;;;;;;5084693;28;20109;-77
2023/02/09 15:19:27;;;;;;;27.55;8.75;;;16.10;54.60;;;;;;5085786;28;20461;-75
2023/02/09 15:21:53;;;;;;;35.67;8.25;;;16.10;54.50;;;;;;5084149;28;20044;-77
2023/02/09 15:24:18;;;;;;;25.80;7.55;;;16.10;54.30;;;;;;5083921;28;20036;-77
2023/02/09 15:26:44;;;;;;;28.70;7.90;;;16.10;54.20;;;;;;5081157;28;20047;-78
2023/02/09 15:29:15;;;;;;;20.20;8.25;;;16.10;54.30;;;;;;5074311;28;20076;-77
2023/02/09 15:31:41;;;;;;;28.08;10.82;;;16.10;54.20;;;;;;5079657;28;20044;-76
2023/02/09 15:34:10;;;;;;;29.90;11.35;;;16.10;53.60;;;;;;5074328;28;20098;-76
2023/02/09 15:36:39;;;;;;;31.67;10.98;;;16.10;53.00;;;;;;5077981;28;20044;-75
2023/02/09 15:39:11;;;;;;;22.35;10.10;;;16.10;52.90;;;;;;5095277;28;20450;-76
2023/02/09 15:50:01;;;;;;;;;;;16.20;53.60;;;;;;5095006;28;20445;-78
2023/02/09 15:52:27;;;;;;;27.42;8.15;;;16.20;53.90;;;;;;5083215;28;20003;-78
2023/02/09 16:02:00;;;;;;;;;;;16.20;54.70;;;;;;5074017;28;20147;-80
2023/02/09 16:07:02;;;;;;;22.23;7.68;;;16.20;54.70;;;;;;4736896;27;11419400;-78
2023/02/09 16:09:40;;;;;;;28.33;8.25;;;16.20;55.60;;;;;;5077654;28;20366;-77
2023/02/09 16:12:14;;;;;;;29.73;6.88;;;16.30;56.00;;;;;;5068042;28;20052;-80
2023/02/09 16:14:42;;;;;;;26.20;7.22;;;16.20;56.50;;;;;;5058871;28;20048;-77
2023/02/09 16:17:08;;;;;;;32.75;8.13;;;16.20;56.80;;;;;;5074455;28;20048;-78
2023/02/09 16:19:34;;;;;;;31.88;9.18;;;16.20;57.70;;;;;;5104699;28;20047;-77
2023/02/09 16:22:03;;;;;;;25.67;8.63;;;16.20;58.00;;;;;;5094650;28;20040;-77
2023/02/09 16:24:37;;;;;;;29.20;9.32;;;16.10;58.30;;;;;;5093932;28;20048;-78
2023/02/09 16:27:23;;;;;;;33.95;9.63;;;16.10;58.10;;;;;;5077390;28;20111;-78
2023/02/09 16:29:49;;;;;;;26.52;7.30;;;16.10;57.80;;;;;;5095023;28;20044;-76
2023/02/09 16:33:27;;;;;;;;;;;;;;;;;;;;;
2023/02/09 16:43:18;;;;;;;47.33;8.38;;;15.90;59.00;;;;;;5023853;28;20519;-77
2023/02/09 16:49:37;;;;;;;27.50;8.05;;;16.00;59.50;;;;;;5105723;28;20051;-77
2023/02/09 16:52:15;;;;;;;26.90;9.02;;;16.10;60.60;;;;;;5076832;28;20044;-77
2023/02/09 16:54:50;;;;;;;34.05;10.00;;;16.00;59.80;;;;;;5077981;28;20043;-78
2023/02/09 16:57:21;;;;;;;28.70;9.38;;;16.00;59.10;;;;;;5094356;28;20039;-77
2023/02/09 16:59:47;;;;;;;30.42;8.95;;;16.00;59.30;;;;;;5093615;28;20063;-78
2023/02/09 17:02:41;;;;;;;28.55;8.35;;;16.00;59.70;;;;;;5094445;28;20039;-77
2023/02/09 17:05:17;;;;;;;19.98;6.88;;;16.10;60.40;;;;;;5077067;28;20372;-78
2023/02/09 17:07:44;;;;;;;24.30;8.02;;;16.10;60.70;;;;;;5093874;28;20039;-78
2023/02/09 17:10:16;;;;;;;19.08;7.15;;;16.00;61.00;;;;;;5111835;28;20050;-78
2023/02/09 17:12:45;;;;;;;16.23;6.35;;;16.00;61.20;;;;;;5094309;28;20031;-78
2023/02/09 17:15:17;;;;;;;24.67;6.13;;;16.00;61.10;;;;;;5077565;28;20453;-77
2023/02/09 17:17:51;;;;;;;30.73;6.40;;;16.10;61.50;;;;;;5082631;28;20036;-78
2023/02/09 17:20:27;;;;;;;20.25;6.13;;;16.10;61.60;;;;;;5076743;28;20036;-77
2023/02/09 17:22:56;;;;;;;26.85;6.47;;;16.10;61.60;;;;;;5063191;28;20044;-77
2023/02/09 17:25:25;;;;;;;20.35;5.65;;;16.00;61.60;;;;;;5079944;28;20036;-78
2023/02/09 17:27:51;;;;;;;28.23;6.00;;;16.00;62.00;;;;;;5079248;28;20066;-77
2023/02/09 17:30:17;;;;;;;35.50;6.50;;;16.00;61.90;;;;;;5062093;28;20040;-78
2023/02/09 17:32:47;;;;;;;24.30;6.43;;;16.00;62.10;;;;;;5080032;28;20046;-77
2023/02/09 17:35:18;;;;;;;22.13;5.13;;;16.00;62.30;;;;;;5063105;28;20529;-78
2023/02/09 17:37:47;;;;;;;17.33;5.45;;;15.90;62.40;;;;;;5063947;28;20347;-81
2023/02/09 17:40:18;;;;;;;24.38;6.68;;;15.90;62.40;;;;;;5080339;28;20066;-77
2023/02/09 17:42:52;;;;;;;21.88;5.47;;;15.90;62.60;;;;;;5079454;28;20044;-77
2023/02/09 17:45:25;;;;;;;32.45;6.43;;;15.90;62.50;;;;;;5097624;28;20055;-75
2023/02/09 17:47:53;;;;;;;22.65;5.55;;;15.80;62.80;;;;;;5079521;28;20043;-77
2023/02/09 17:50:20;;;;;;;27.55;5.75;;;15.80;62.30;;;;;;5079363;28;20086;-78
2023/02/09 17:52:46;;;;;;;27.65;5.10;;;15.80;62.30;;;;;;5061732;28;20446;-77
2023/02/09 17:55:25;;;;;;;23.95;5.05;;;15.70;62.10;;;;;;5079088;28;20077;-75
2023/02/09 17:57:55;;;;;;;32.10;5.68;;;15.70;62.00;;;;;;5093796;28;20038;-75
2023/02/09 18:00:22;;;;;;;23.63;4.45;;;15.70;61.80;;;;;;5086369;28;20040;-75
2023/02/09 18:02:47;;;;;;;15.98;4.63;;;15.70;62.00;;;;;;5087796;28;20056;-76
2023/02/09 18:05:20;;;;;;;16.73;5.07;;;15.60;61.90;;;;;;5085675;28;20473;-76
2023/02/09 18:07:46;;;;;;;21.40;4.85;;;15.60;62.00;;;;;;5067801;28;20064;-75
2023/02/09 18:10:12;;;;;;;24.60;4.57;;;15.50;61.90;;;;;;5087218;28;20078;-77
2023/02/09 18:12:42;;;;;;;21.17;4.75;;;15.60;61.90;;;;;;5054473;28;20051;-75
2023/02/09 18:15:25;;;;;;;18.75;4.70;;;15.50;61.90;;;;;;5067413;28;20044;-75
2023/02/09 18:17:51;;;;;;;22.77;4.00;;;15.50;61.70;;;;;;5084231;28;20045;-75
2023/02/09 18:20:21;;;;;;;12.68;3.42;;;15.50;61.60;;;;;;5058699;28;20041;-74
2023/02/09 18:22:47;;;;;;;15.57;4.90;;;15.40;61.40;;;;;;5076383;28;20436;-74
2023/02/09 18:25:34;;;;;;;18.15;3.65;;;15.40;61.20;;;;;;5078209;28;20044;-76
2023/02/09 18:28:02;;;;;;;12.63;4.50;;;15.40;61.30;;;;;;5095411;28;20181;-76
2023/02/09 18:30:31;;;;;;;10.82;4.82;;;15.40;55.90;;;;;;5091481;28;20036;-75
2023/02/09 18:32:57;;;;;;;14.07;4.32;;;15.20;52.40;;;;;;5086932;28;20043;-74
2023/02/09 18:35:35;;;;;;;16.60;4.78;;;14.80;51.90;;;;;;5085266;28;20040;-76
2023/02/09 18:38:02;;;;;;;13.02;3.63;;;14.40;52.20;;;;;;5081789;28;20052;-76
2023/02/09 18:40:30;;;;;;;11.05;3.58;;;14.00;52.60;;;;;;5076546;28;20067;-74
2023/02/09 18:42:57;;;;;;;16.98;3.55;;;13.70;54.40;;;;;;5076365;28;20057;-74
2023/02/09 18:45:23;;;;;;;12.30;3.63;;;13.50;56.10;;;;;;5076785;28;20470;-73
2023/02/09 18:47:48;;;;;;;12.82;3.75;;;13.50;56.20;;;;;;5076345;28;20131;-72
2023/02/09 18:50:19;;;;;;;17.55;3.83;;;13.50;56.80;;;;;;5093420;28;20123;-73
2023/02/09 18:52:51;;;;;;;13.15;3.88;;;13.50;57.40;;;;;;5080748;28;20052;-73
2023/02/09 18:55:17;;;;;;;12.90;3.58;;;13.50;57.70;;;;;;5075834;28;20049;-74
2023/02/09 18:57:44;;;;;;;12.80;3.63;;;13.50;57.70;;;;;;5089624;28;20044;-73
2023/02/09 19:00:17;;;;;;;10.88;3.15;;;13.60;57.90;;;;;;5074297;28;20048;-72
2023/02/09 19:02:44;;;;;;;16.63;3.43;;;13.70;58.30;;;;;;5061763;28;20084;-75
2023/02/09 19:05:12;;;;;;;16.50;3.67;;;13.80;58.60;;;;;;5096545;28;20051;-72
2023/02/09 19:07:37;;;;;;;19.50;4.28;;;13.80;59.40;;;;;;5094631;28;20087;-73
2023/02/09 19:10:06;;;;;;;12.00;3.85;;;13.90;60.00;;;;;;5095742;28;20079;-74
2023/02/09 19:12:32;;;;;;;14.30;3.38;;;14.00;60.80;;;;;;5095791;28;20076;-71
2023/02/09 19:14:58;;;;;;;16.58;3.72;;;14.10;61.80;;;;;;5077998;28;20081;-72
2023/02/09 19:17:24;;;;;;;17.40;3.63;;;14.10;62.70;;;;;;5095604;28;20467;-72
2023/02/09 19:19:50;;;;;;;17.65;3.10;;;14.10;63.30;;;;;;5096104;28;20131;-74
2023/02/09 19:22:18;;;;;;;10.70;2.60;;;14.20;62.80;;;;;;5095634;28;20047;-73
2023/02/09 19:24:45;;;;;;;12.32;2.80;;;14.20;63.50;;;;;;5095924;28;20164;-72
2023/02/09 19:27:12;;;;;;;10.30;3.22;;;14.30;64.30;;;;;;5095410;28;20465;-73
2023/02/09 19:29:40;;;;;;;10.02;3.08;;;14.30;64.80;;;;;;5061121;28;20055;-74
2023/02/09 19:32:07;;;;;;;12.90;2.92;;;14.30;64.30;;;;;;5077254;28;20055;-72
2023/02/09 19:34:35;;;;;;;12.90;3.33;;;14.40;64.30;;;;;;5095792;28;20418;-71
2023/02/09 19:37:02;;;;;;;10.00;2.47;;;14.30;62.70;;;;;;5078197;28;20052;-72
2023/02/09 19:39:28;;;;;;;14.25;3.58;;;14.30;61.60;;;;;;5078228;28;20096;-73
2023/02/09 19:41:53;;;;;;;11.38;2.90;;;14.30;61.90;;;;;;5095341;28;20075;-74
2023/02/09 19:44:22;;;;;;;23.63;3.75;;;14.30;62.00;;;;;;5078050;28;20044;-72
2023/02/09 19:46:49;;;;;;;12.15;3.33;;;14.30;61.80;;;;;;5078002;28;20056;-72
2023/02/09 19:49:14;;;;;;;16.70;3.30;;;14.30;61.80;;;;;;5095094;28;20140;-72
2023/02/09 19:51:40;;;;;;;18.45;3.53;;;14.30;61.70;;;;;;5084347;28;20040;-73
2023/02/09 19:54:06;;;;;;;18.88;3.58;;;14.30;61.50;;;;;;5088095;28;20052;-71
2023/02/09 19:56:52;;;;;;;20.27;3.85;;;14.30;61.50;;;;;;5083553;28;20055;-72
2023/02/09 19:59:18;;;;;;;21.63;3.33;;;14.30;61.40;;;;;;5084549;28;20045;-71
2023/02/09 20:01:46;;;;;;;18.88;3.33;;;14.20;61.30;;;;;;5086464;28;20361;-74
2023/02/09 20:04:19;;;;;;;13.20;2.83;;;14.20;61.20;;;;;;5094911;28;20051;-74
2023/02/09 20:06:45;;;;;;;19.50;4.63;;;14.20;61.20;;;;;;5094655;28;20092;-72
2023/02/09 20:09:11;;;;;;;14.73;2.88;;;14.20;61.20;;;;;;5094913;28;20466;-72
2023/02/09 20:11:37;;;;;;;16.95;3.88;;;14.20;61.20;;;;;;5094946;28;20040;-72
2023/02/09 20:14:04;;;;;;;12.20;2.70;;;14.20;61.30;;;;;;5094821;28;20119;-72
2023/02/09 20:16:30;;;;;;;15.32;3.08;;;14.20;61.30;;;;;;5083495;28;20089;-71
2023/02/09 20:18:56;;;;;;;14.02;3.10;;;14.20;61.30;;;;;;5085351;28;20050;-73
2023/02/09 20:21:22;;;;;;;11.35;2.67;;;14.20;61.30;;;;;;5066145;28;20037;-72
2023/02/09 20:23:51;;;;;;;10.30;3.08;;;14.20;61.40;;;;;;5083964;28;20108;-72
2023/02/09 20:26:25;;;;;;;12.32;3.05;;;14.20;61.30;;;;;;5088051;28;20040;-73
2023/02/09 20:28:52;;;;;;;11.85;3.20;;;14.20;61.30;;;;;;5067179;28;20051;-73
2023/02/09 20:31:20;;;;;;;13.43;2.58;;;14.20;61.20;;;;;;5083021;28;20032;-71
2023/02/09 20:33:47;;;;;;;11.77;2.47;;;14.10;61.20;;;;;;5065317;28;20471;-74
2023/02/09 20:36:13;;;;;;;10.20;2.42;;;14.10;61.30;;;;;;5084479;28;20108;-73